Airfield :
LOGIN :

Register | Disclaimer

   EN    FR    IT 

 










Legend :    VFR   Marginal VFR   IFR   Intensive IFR   Very Intensive IFR
Visi :
Ceiling :
>= 8 km
>= 3000ft
5 to 8 km
1000 to 3000 ft
1500m to 5 km
500 to 1000 ft
800 to 1500m
200 to 500 ft
< 800m
< 200 ft
Symbols :   Thunderstorms  Fog  Heavy snow  Heavy precipitations  Wind > 20 kt
SIGMETs :     Misc.  Thunderstorms  Icing  Turbulence  Mountain Waves  Volcanic Ashes






- Airport Elevation : 529 ft
- IATA code : CHR


LFLX - Chateauroux

CURRENT METAR :
  • 300700Z AUTO 20005KT 9999 BKN014 11/11 Q1026 TEMPO 2000 BR VV///

EXPIRED METARs :
  • 300630Z AUTO 20004KT 9999 BKN011 OVC026 11/11 Q1026 TEMPO 2000 BR VV///
  • 300600Z AUTO 20004KT 9999 OVC012 11/11 Q1026 TEMPO 0400 FG VV///
  • 300530Z AUTO 21005KT 9999 OVC015 12/11 Q1026 TEMPO 0400 FG VV///
  • 300500Z AUTO 22007KT 9999 OVC015 12/12 Q1026 TEMPO 0600 FG VV///
  • 300430Z AUTO 21007KT 9999 BKN015 OVC020 12/11 Q1026 TEMPO 0600 FG VV///

TAF AMD TAF LFLX
Valid from the 30 at 06:00 until the 31 at 12:00 UTC


300649Z 3006/3112 22006KT 9999 BKN012
TEMPO 3006/3009 2000 BR BKN004
PROB40
TEMPO 3006/3008 0400 FG VV///
BECMG 3009/3012 BKN016
BECMG 3013/3015 CAVOK
BECMG 3016/3018 09003KT
PROB30
TEMPO 3021/3101 2000 MIFG
PROB40
TEMPO 3101/3109 0300 FG VV///
BECMG 3111/3112 22010KT



MET'MAP, your aeronautical weather chart ! - Copyright ORBIFLY December 2007 - Disclaimer

ORBIFLY MET'MAP TEAM :

Programming & Development : Alexandra Zaïnal
Concept & original design : Baudouin d'Aumeries
Assistance for programming : Marc-Olivier Méhu
Technical & hardware support : Manuel Goepfert

Contact : metmap@orbifly.com




SOURCES & CREDITS :

   NOAA